Time;durP1;ratioP1;P1;durP2;ratioP2;P2;SDS_P1;SDS_P2;PMS_P1;PMS_P2;Temp;Humidity;BMP_temperature;BMP_pressure;BME280_temperature;BME280_humidity;BME280_pressure;Samples;Min_cycle;Max_cycle;Signal;HPM_P1;HPM_P2
2022/03/24 00:00:21;;;;;;;12.10;8.37;;;9.30;30.40;;;;;;5051833;28;20169;-34
2022/03/24 00:02:47;;;;;;;16.63;8.50;;;9.30;30.40;;;;;;5052383;28;20230;-34
2022/03/24 00:05:13;;;;;;;17.90;9.67;;;9.20;30.70;;;;;;5051963;28;20929;-34
2022/03/24 00:07:40;;;;;;;13.63;7.10;;;9.20;30.50;;;;;;5051671;28;20707;-35
2022/03/24 00:10:06;;;;;;;11.68;7.30;;;9.10;30.70;;;;;;5051859;28;20404;-34
2022/03/24 00:12:34;;;;;;;23.13;9.10;;;9.10;30.70;;;;;;5052053;28;20177;-34
2022/03/24 00:15:01;;;;;;;14.02;7.85;;;9.00;31.30;;;;;;5051918;28;20165;-34
2022/03/24 00:17:26;;;;;;;13.55;10.48;;;8.90;31.80;;;;;;5051970;28;20178;-34
2022/03/24 00:19:52;;;;;;;11.90;7.70;;;8.80;31.80;;;;;;5051513;28;20295;-34
2022/03/24 00:22:18;;;;;;;13.50;9.43;;;8.80;32.00;;;;;;5052103;28;20254;-34
2022/03/24 00:24:43;;;;;;;28.53;12.17;;;8.80;31.50;;;;;;5051936;28;20640;-34
2022/03/24 00:27:09;;;;;;;21.20;10.20;;;8.80;31.30;;;;;;5051795;28;20602;-34
2022/03/24 00:29:35;;;;;;;15.17;10.30;;;8.80;30.90;;;;;;5051529;28;20189;-34
2022/03/24 00:32:00;;;;;;;10.97;8.70;;;8.80;31.00;;;;;;5053269;28;20168;-34
2022/03/24 00:34:26;;;;;;;12.67;8.70;;;8.80;31.20;;;;;;5055637;28;20174;-34
2022/03/24 00:36:52;;;;;;;13.00;9.13;;;8.80;31.70;;;;;;5056135;28;20629;-34
2022/03/24 00:39:17;;;;;;;13.37;9.03;;;8.70;31.20;;;;;;5055357;28;20193;-34
2022/03/24 00:41:43;;;;;;;15.80;8.13;;;8.70;31.20;;;;;;5055622;28;20200;-34
2022/03/24 00:44:09;;;;;;;15.90;10.10;;;8.70;31.50;;;;;;5055650;28;20201;-34
2022/03/24 00:46:35;;;;;;;15.35;9.43;;;8.60;31.30;;;;;;5055493;28;20448;-34
2022/03/24 00:49:01;;;;;;;12.97;9.67;;;8.60;31.60;;;;;;5055159;28;20213;-34
2022/03/24 00:51:28;;;;;;;12.65;8.38;;;8.60;31.40;;;;;;5055469;28;20176;-34
2022/03/24 00:53:54;;;;;;;20.80;10.63;;;8.60;31.70;;;;;;5055354;28;20193;-33
2022/03/24 00:56:20;;;;;;;13.30;7.63;;;8.50;31.80;;;;;;5055320;28;20198;-34
2022/03/24 00:58:45;;;;;;;15.18;7.57;;;8.50;31.40;;;;;;5055057;28;20192;-34
2022/03/24 01:01:12;;;;;;;11.43;8.37;;;8.50;31.30;;;;;;5055320;28;20180;-33
2022/03/24 01:03:39;;;;;;;11.68;7.63;;;8.40;31.50;;;;;;5055142;28;20536;-34
2022/03/24 01:06:07;;;;;;;14.02;8.13;;;8.40;31.40;;;;;;5055158;28;20188;-34
2022/03/24 01:08:33;;;;;;;16.33;9.15;;;8.40;31.40;;;;;;5054679;28;20216;-34
2022/03/24 01:11:01;;;;;;;15.52;7.80;;;8.40;31.70;;;;;;5055083;28;20171;-34
2022/03/24 01:13:28;;;;;;;12.88;6.55;;;8.30;32.00;;;;;;5055415;28;20177;-33
2022/03/24 01:15:54;;;;;;;13.07;7.22;;;8.30;31.60;;;;;;5054943;28;20645;-34
2022/03/24 01:18:20;;;;;;;19.52;9.93;;;8.20;31.70;;;;;;5054956;28;20294;-34
2022/03/24 01:20:46;;;;;;;15.10;7.70;;;8.20;31.90;;;;;;5054737;28;20261;-33
2022/03/24 01:23:13;;;;;;;14.07;7.90;;;8.20;31.90;;;;;;5055123;28;20177;-34
2022/03/24 01:25:42;;;;;;;13.38;6.63;;;8.10;31.80;;;;;;5054891;28;20272;-34
2022/03/24 01:28:13;;;;;;;14.68;8.05;;;8.10;32.10;;;;;;5054671;28;20278;-33
2022/03/24 01:30:39;;;;;;;13.82;8.02;;;8.00;31.80;;;;;;5054454;28;20182;-33
2022/03/24 01:33:05;;;;;;;17.67;8.77;;;8.00;32.00;;;;;;5054829;28;20644;-33
2022/03/24 01:35:31;;;;;;;20.42;11.70;;;8.00;32.30;;;;;;5054615;28;20503;-33
2022/03/24 01:37:58;;;;;;;19.60;9.43;;;7.90;32.10;;;;;;5054464;28;20283;-33
2022/03/24 01:40:24;;;;;;;17.33;10.55;;;7.90;32.00;;;;;;5054306;28;20176;-34
2022/03/24 01:42:50;;;;;;;21.92;8.88;;;7.90;32.20;;;;;;5054239;28;20173;-34
2022/03/24 01:45:17;;;;;;;14.03;7.70;;;7.80;32.20;;;;;;5045729;28;20177;-34
2022/03/24 01:47:42;;;;;;;12.38;7.78;;;7.80;32.00;;;;;;5054204;28;20477;-34
2022/03/24 01:50:11;;;;;;;12.00;7.03;;;7.70;32.20;;;;;;5054323;28;20165;-34
2022/03/24 01:52:36;;;;;;;9.82;7.00;;;7.70;32.80;;;;;;5054278;28;20170;-34
2022/03/24 01:55:06;;;;;;;14.17;8.80;;;7.70;33.30;;;;;;5054328;28;20618;-34
2022/03/24 01:57:32;;;;;;;12.75;9.02;;;7.60;33.10;;;;;;5054159;28;20170;-34
2022/03/24 02:00:02;;;;;;;17.83;7.20;;;7.50;33.20;;;;;;5054712;28;20232;-34
2022/03/24 02:02:28;;;;;;;20.75;9.18;;;7.50;32.80;;;;;;5055582;28;20469;-34
2022/03/24 02:04:53;;;;;;;16.60;9.35;;;7.50;32.90;;;;;;5054916;28;20175;-34
2022/03/24 02:07:20;;;;;;;10.00;6.93;;;7.50;33.00;;;;;;5053910;28;20193;-34
2022/03/24 02:09:46;;;;;;;12.43;9.00;;;7.50;33.00;;;;;;5053582;28;20455;-34
2022/03/24 02:12:13;;;;;;;14.20;7.17;;;7.40;32.60;;;;;;5053884;28;20174;-35
2022/03/24 02:14:40;;;;;;;16.50;7.15;;;7.40;32.60;;;;;;5054176;28;20165;-35
2022/03/24 02:17:06;;;;;;;9.00;5.57;;;7.40;33.10;;;;;;5054125;28;20185;-35
2022/03/24 02:19:32;;;;;;;14.13;7.90;;;7.40;32.60;;;;;;5053574;28;20655;-35
2022/03/24 02:22:16;;;;;;;12.30;8.57;;;7.40;32.30;;;;;;5053782;28;20408;-35
2022/03/24 02:24:42;;;;;;;11.48;6.40;;;7.40;32.80;;;;;;5053649;28;21102;-35
2022/03/24 02:27:10;;;;;;;14.02;7.55;;;7.40;32.50;;;;;;5053950;28;20207;-35
2022/03/24 02:29:36;;;;;;;10.95;7.03;;;7.30;32.70;;;;;;5053803;28;20223;-35
2022/03/24 02:32:08;;;;;;;10.30;7.10;;;7.30;32.80;;;;;;5053686;28;20182;-35
2022/03/24 02:34:38;;;;;;;14.90;6.90;;;7.30;33.30;;;;;;5053682;28;20176;-35
2022/03/24 02:37:07;;;;;;;9.85;6.85;;;7.20;32.90;;;;;;5053561;28;20173;-35
2022/03/24 02:39:34;;;;;;;14.57;6.43;;;7.20;33.00;;;;;;5053733;28;20205;-35
2022/03/24 02:42:00;;;;;;;10.02;7.85;;;7.10;32.70;;;;;;5053405;28;20514;-35
2022/03/24 02:44:30;;;;;;;10.45;5.53;;;7.10;33.60;;;;;;5053358;28;20174;-36
2022/03/24 02:46:57;;;;;;;15.05;8.43;;;7.10;32.90;;;;;;5053197;28;20228;-35
2022/03/24 02:49:25;;;;;;;12.38;7.10;;;7.10;32.60;;;;;;5053049;28;20277;-35
2022/03/24 02:51:53;;;;;;;16.05;8.07;;;7.00;32.60;;;;;;5053067;28;20696;-35
2022/03/24 02:54:22;;;;;;;12.27;8.15;;;7.00;32.80;;;;;;5052751;28;20261;-34
2022/03/24 02:56:48;;;;;;;11.88;6.82;;;6.90;32.70;;;;;;5053059;28;20180;-34
2022/03/24 02:59:15;;;;;;;14.02;7.38;;;6.90;32.70;;;;;;5052784;28;20284;-34
2022/03/24 03:01:44;;;;;;;14.70;7.75;;;6.90;32.60;;;;;;5053071;28;20664;-35
2022/03/24 03:04:12;;;;;;;8.32;6.15;;;6.80;32.70;;;;;;5053150;28;20222;-35
2022/03/24 03:06:38;;;;;;;13.20;6.25;;;6.80;33.40;;;;;;5052751;28;20169;-35
2022/03/24 03:09:05;;;;;;;12.20;6.22;;;6.80;33.60;;;;;;5052437;28;20220;-35
2022/03/24 03:11:31;;;;;;;11.73;6.50;;;6.80;33.20;;;;;;5052824;28;20166;-35
2022/03/24 03:13:57;;;;;;;8.70;5.03;;;6.80;32.80;;;;;;5052718;28;20174;-35
2022/03/24 03:16:23;;;;;;;8.23;5.60;;;6.80;32.90;;;;;;5052684;28;20900;-35
2022/03/24 03:18:49;;;;;;;9.33;6.47;;;6.80;33.00;;;;;;5052227;28;20204;-35
2022/03/24 03:21:16;;;;;;;10.50;6.00;;;6.80;33.10;;;;;;5052561;28;20410;-35
2022/03/24 03:23:43;;;;;;;8.93;6.60;;;6.80;33.40;;;;;;5052477;28;20181;-35
2022/03/24 03:26:10;;;;;;;9.65;7.65;;;6.80;33.20;;;;;;5052607;28;20173;-35
2022/03/24 03:28:37;;;;;;;13.77;7.63;;;6.80;33.10;;;;;;5052135;28;20607;-35
2022/03/24 03:31:03;;;;;;;12.60;6.20;;;6.70;33.20;;;;;;5052508;28;20657;-35
2022/03/24 03:33:29;;;;;;;10.63;6.75;;;6.70;33.10;;;;;;5052370;28;20193;-35
2022/03/24 03:35:55;;;;;;;10.07;5.93;;;6.70;33.00;;;;;;5052643;28;20180;-35
2022/03/24 03:38:21;;;;;;;8.90;6.53;;;6.70;33.10;;;;;;5052229;28;20684;-35
2022/03/24 03:40:47;;;;;;;12.43;6.68;;;6.70;33.00;;;;;;5052078;28;20199;-34
2022/03/24 03:43:14;;;;;;;8.52;5.13;;;6.60;33.50;;;;;;5052336;28;20222;-35
2022/03/24 03:45:43;;;;;;;11.35;5.22;;;6.60;33.40;;;;;;5052421;28;20192;-35
2022/03/24 03:48:10;;;;;;;9.95;5.07;;;6.50;33.50;;;;;;5052152;28;20197;-33
2022/03/24 03:50:37;;;;;;;11.63;7.53;;;6.50;33.60;;;;;;5052166;28;20173;-33
2022/03/24 03:53:04;;;;;;;14.68;5.43;;;6.50;33.60;;;;;;5052328;28;20184;-32
2022/03/24 03:55:30;;;;;;;9.32;5.43;;;6.50;33.50;;;;;;5052251;28;20502;-33
2022/03/24 03:57:56;;;;;;;10.93;6.40;;;6.50;33.50;;;;;;5052306;28;20201;-33
2022/03/24 04:03:06;;;;;;;12.57;6.47;;;6.40;33.30;;;;;;5052383;28;20250;-33
2022/03/24 04:05:33;;;;;;;10.60;6.77;;;6.40;33.20;;;;;;5051928;28;20205;-33
2022/03/24 04:08:00;;;;;;;10.60;5.82;;;6.40;33.20;;;;;;5051689;28;20459;-33
2022/03/24 04:10:27;;;;;;;9.40;6.18;;;6.30;33.40;;;;;;5051787;28;20667;-32
2022/03/24 04:12:55;;;;;;;9.32;4.07;;;6.30;33.80;;;;;;5051923;28;20173;-33
2022/03/24 04:15:24;;;;;;;17.27;6.45;;;6.20;33.50;;;;;;5052027;28;20172;-33
2022/03/24 04:17:53;;;;;;;9.68;5.95;;;6.30;33.40;;;;;;5051865;28;20189;-33
2022/03/24 04:20:23;;;;;;;11.40;5.45;;;6.30;33.60;;;;;;5050529;28;20173;-34
2022/03/24 04:22:50;;;;;;;10.02;6.30;;;6.20;33.70;;;;;;5052051;28;20185;-32
2022/03/24 04:25:22;;;;;;;12.48;7.00;;;6.20;33.70;;;;;;5051916;28;20826;-36
2022/03/24 04:27:49;;;;;;;9.07;5.70;;;6.20;33.90;;;;;;5051737;28;20221;-33
2022/03/24 04:30:17;;;;;;;13.00;7.03;;;6.20;33.70;;;;;;5051562;28;20667;-33
2022/03/24 04:32:47;;;;;;;8.60;6.13;;;6.20;33.80;;;;;;5051627;28;20184;-36
2022/03/24 04:35:16;;;;;;;9.45;6.07;;;6.20;34.50;;;;;;5051674;28;20729;-36
2022/03/24 04:37:43;;;;;;;6.47;4.95;;;6.20;33.90;;;;;;5051616;28;20188;-32
2022/03/24 04:40:13;;;;;;;7.75;5.32;;;6.20;33.70;;;;;;5051487;28;20775;-35
2022/03/24 04:42:42;;;;;;;11.73;6.28;;;6.20;33.60;;;;;;5051901;28;20177;-35
2022/03/24 04:45:09;;;;;;;9.98;5.72;;;6.10;33.50;;;;;;5051920;28;20255;-35
2022/03/24 04:47:35;;;;;;;11.32;7.07;;;6.10;33.60;;;;;;5051429;28;20530;-34
2022/03/24 04:50:01;;;;;;;14.57;6.43;;;6.10;33.40;;;;;;5051527;28;20300;-34
2022/03/24 04:52:27;;;;;;;8.18;5.45;;;6.00;33.80;;;;;;5051639;28;20197;-34
2022/03/24 04:54:53;;;;;;;8.60;4.37;;;6.00;34.10;;;;;;5051698;28;20236;-35
2022/03/24 04:57:19;;;;;;;13.00;5.80;;;6.00;34.00;;;;;;5051450;28;20412;-34
2022/03/24 04:59:44;;;;;;;9.63;5.20;;;6.00;33.80;;;;;;5051163;28;20225;-35
2022/03/24 05:02:15;;;;;;;8.30;4.90;;;5.90;33.70;;;;;;5051679;28;20260;-34
2022/03/24 05:04:42;;;;;;;9.10;4.70;;;5.90;33.60;;;;;;5051404;28;20518;-34
2022/03/24 05:07:09;;;;;;;8.18;4.47;;;5.90;33.60;;;;;;5051508;28;20243;-34
2022/03/24 05:09:35;;;;;;;8.98;4.75;;;5.90;34.00;;;;;;5050967;28;20696;-34
2022/03/24 05:12:01;;;;;;;9.70;5.18;;;5.90;34.30;;;;;;5051329;28;20645;-34
2022/03/24 05:14:26;;;;;;;8.37;4.43;;;5.90;34.10;;;;;;5050317;28;20268;-34
2022/03/24 05:16:52;;;;;;;18.03;6.77;;;5.90;34.20;;;;;;5051345;28;20169;-34
2022/03/24 05:19:19;;;;;;;4.33;3.17;;;5.90;34.80;;;;;;5054310;28;20211;-34
2022/03/24 05:21:45;;;;;;;11.90;6.80;;;5.80;34.50;;;;;;5054808;28;20161;-34
2022/03/24 05:24:11;;;;;;;12.85;6.43;;;5.90;34.50;;;;;;5053553;28;20173;-34
2022/03/24 05:26:38;;;;;;;10.50;5.63;;;5.90;34.50;;;;;;5046397;28;20252;-34
2022/03/24 05:29:03;;;;;;;9.60;5.13;;;5.90;34.40;;;;;;5054610;28;20270;-34
2022/03/24 05:31:29;;;;;;;15.73;6.80;;;6.00;34.30;;;;;;5055068;28;20157;-34
2022/03/24 05:33:55;;;;;;;11.23;6.40;;;6.00;34.10;;;;;;5054686;28;20165;-34
2022/03/24 05:36:21;;;;;;;13.43;6.80;;;6.10;34.10;;;;;;5054529;28;20170;-34
2022/03/24 05:38:46;;;;;;;13.87;7.57;;;6.10;33.90;;;;;;5054383;28;20518;-34
2022/03/24 05:41:13;;;;;;;15.73;7.10;;;6.10;34.30;;;;;;5055564;28;20169;-34
2022/03/24 05:43:40;;;;;;;10.43;6.68;;;6.20;34.20;;;;;;5055077;28;20661;-34
2022/03/24 05:46:06;;;;;;;14.25;5.38;;;6.20;34.30;;;;;;5054689;28;20660;-34
2022/03/24 05:48:34;;;;;;;10.18;6.63;;;6.20;34.40;;;;;;5054246;28;20239;-35
2022/03/24 05:51:00;;;;;;;13.98;6.47;;;6.20;34.80;;;;;;5054264;28;20669;-35
2022/03/24 05:53:26;;;;;;;10.03;5.30;;;6.30;34.30;;;;;;5054314;28;20166;-34
2022/03/24 05:55:52;;;;;;;10.17;6.20;;;6.40;34.40;;;;;;5054731;28;20174;-34
2022/03/24 05:58:17;;;;;;;12.60;6.40;;;6.40;34.50;;;;;;5045889;28;20205;-34
2022/03/24 06:00:43;;;;;;;16.20;7.50;;;6.50;34.40;;;;;;5053880;28;20306;-34
2022/03/24 06:03:09;;;;;;;14.13;7.43;;;6.60;34.20;;;;;;5054182;28;20267;-34
2022/03/24 06:05:39;;;;;;;10.10;6.87;;;6.70;34.30;;;;;;5054170;28;20835;-34
2022/03/24 06:08:07;;;;;;;12.13;6.65;;;6.80;34.30;;;;;;5053718;28;20766;-34
2022/03/24 06:10:33;;;;;;;10.80;6.72;;;6.90;34.30;;;;;;5052934;28;20177;-34
2022/03/24 06:12:59;;;;;;;10.27;5.38;;;7.10;34.20;;;;;;5053864;28;20166;-34
2022/03/24 06:15:25;;;;;;;7.85;5.55;;;7.20;34.10;;;;;;5052568;28;20705;-34
2022/03/24 06:17:51;;;;;;;17.47;7.73;;;7.30;34.00;;;;;;5053720;28;20190;-34
2022/03/24 06:20:17;;;;;;;16.03;6.37;;;7.40;33.90;;;;;;5053326;28;20836;-34
2022/03/24 06:22:51;;;;;;;15.27;8.00;;;7.50;34.00;;;;;;5051511;28;20411;-34
2022/03/24 06:25:17;;;;;;;12.13;7.18;;;7.60;33.80;;;;;;5054918;28;20173;-34
2022/03/24 06:27:42;;;;;;;11.63;7.30;;;7.80;33.90;;;;;;5054542;28;20284;-34
2022/03/24 06:30:09;;;;;;;11.50;8.47;;;7.90;33.90;;;;;;5052594;28;20252;-34
2022/03/24 06:32:35;;;;;;;15.35;8.25;;;8.00;33.80;;;;;;5053509;28;20173;-34
2022/03/24 06:35:03;;;;;;;12.30;8.07;;;8.10;34.50;;;;;;5053384;28;20178;-34
2022/03/24 06:37:29;;;;;;;15.65;8.18;;;8.20;33.80;;;;;;5053782;28;20713;-34
2022/03/24 06:39:55;;;;;;;13.20;7.87;;;8.30;34.70;;;;;;5053062;28;20260;-34
2022/03/24 06:42:21;;;;;;;11.43;6.83;;;8.50;34.10;;;;;;5053341;28;20409;-32
2022/03/24 06:44:49;;;;;;;18.05;8.18;;;8.60;34.30;;;;;;5053475;28;20527;-32
2022/03/24 06:47:15;;;;;;;12.20;7.00;;;8.70;33.90;;;;;;5053155;28;20204;-32
2022/03/24 06:49:41;;;;;;;13.30;7.38;;;8.90;33.60;;;;;;5052819;28;20206;-32
2022/03/24 06:52:07;;;;;;;14.13;8.30;;;9.00;33.80;;;;;;5051784;28;20584;-32
2022/03/24 06:54:33;;;;;;;11.82;7.38;;;9.10;33.50;;;;;;5053139;28;20170;-32
2022/03/24 06:56:59;;;;;;;18.40;8.63;;;9.30;33.90;;;;;;5053315;28;20197;-32
2022/03/24 06:59:24;;;;;;;12.93;7.30;;;9.40;34.30;;;;;;5052758;28;20663;-32
2022/03/24 07:01:50;;;;;;;15.57;7.87;;;9.50;33.50;;;;;;5053099;28;20537;-32
2022/03/24 07:04:16;;;;;;;15.75;8.80;;;9.60;33.50;;;;;;5052948;28;20221;-32
2022/03/24 07:06:42;;;;;;;15.43;8.00;;;9.80;33.10;;;;;;5052851;28;20865;-32
2022/03/24 07:09:07;;;;;;;16.10;9.10;;;9.90;33.20;;;;;;5052767;28;20212;-32
2022/03/24 07:11:33;;;;;;;22.17;10.37;;;10.10;33.00;;;;;;5052691;28;20408;-32
2022/03/24 07:13:59;;;;;;;14.60;8.13;;;10.20;32.80;;;;;;5052620;28;20664;-32
2022/03/24 07:16:25;;;;;;;12.07;7.50;;;10.30;32.70;;;;;;5052699;28;20168;-32
2022/03/24 07:18:51;;;;;;;12.10;7.27;;;10.50;32.70;;;;;;5052366;28;20192;-32
2022/03/24 07:21:17;;;;;;;14.18;9.43;;;10.60;32.50;;;;;;5052865;28;20173;-32
2022/03/24 07:23:43;;;;;;;15.70;8.93;;;10.70;32.50;;;;;;5052563;28;20180;-32
2022/03/24 07:26:09;;;;;;;14.83;10.30;;;10.90;32.30;;;;;;5052624;28;20663;-32
2022/03/24 07:28:36;;;;;;;19.48;9.80;;;11.00;32.10;;;;;;5052001;28;20542;-32
2022/03/24 07:31:13;;;;;;;19.90;9.48;;;11.10;31.80;;;;;;5052351;28;20199;-32
2022/03/24 07:33:39;;;;;;;17.50;9.60;;;11.10;31.60;;;;;;5052627;28;20270;-32
2022/03/24 07:36:06;;;;;;;12.33;8.20;;;11.20;31.40;;;;;;5052152;28;20262;-32
2022/03/24 07:38:33;;;;;;;15.35;10.50;;;11.30;31.30;;;;;;5052022;28;20220;-32
2022/03/24 07:40:59;;;;;;;14.73;8.13;;;11.40;31.20;;;;;;5052485;28;20243;-32
2022/03/24 07:43:25;;;;;;;17.27;12.03;;;11.50;31.00;;;;;;5052224;28;20173;-32
2022/03/24 07:45:52;;;;;;;14.73;11.77;;;11.60;31.00;;;;;;5052950;28;20193;-32
2022/03/24 07:48:20;;;;;;;19.92;10.23;;;11.80;31.10;;;;;;5052122;28;20723;-32
2022/03/24 07:50:48;;;;;;;18.42;11.10;;;12.00;31.10;;;;;;5051996;28;20161;-33
2022/03/24 07:53:14;;;;;;;21.55;9.20;;;12.20;31.10;;;;;;5052123;28;20191;-32
2022/03/24 07:55:41;;;;;;;15.77;11.30;;;12.40;30.40;;;;;;5051988;28;20169;-32
2022/03/24 07:58:17;;;;;;;13.45;7.68;;;12.50;30.50;;;;;;5051963;28;20181;-33
2022/03/24 08:00:44;;;;;;;15.88;10.80;;;12.70;30.70;;;;;;5051878;28;20156;-32
2022/03/24 08:03:11;;;;;;;19.55;11.63;;;12.90;30.50;;;;;;5051961;28;20169;-32
2022/03/24 08:05:37;;;;;;;15.18;10.95;;;13.10;30.20;;;;;;5052241;28;20188;-33
2022/03/24 08:08:09;;;;;;;17.67;9.90;;;13.30;30.00;;;;;;5051821;28;20573;-32
2022/03/24 08:10:36;;;;;;;15.20;10.07;;;13.50;29.90;;;;;;5051744;28;20164;-32
2022/03/24 08:13:02;;;;;;;22.17;12.18;;;13.60;29.40;;;;;;5052094;28;20181;-33
2022/03/24 08:15:28;;;;;;;17.58;11.60;;;13.70;28.90;;;;;;5052217;28;20179;-33
2022/03/24 08:17:54;;;;;;;16.03;11.00;;;13.80;28.20;;;;;;5051955;28;20197;-32
2022/03/24 08:20:20;;;;;;;17.17;10.77;;;13.70;28.30;;;;;;5051119;28;20640;-33
2022/03/24 08:22:45;;;;;;;14.87;11.27;;;13.70;28.00;;;;;;5047388;28;20180;-32
2022/03/24 08:25:11;;;;;;;22.00;10.73;;;13.90;28.80;;;;;;5052176;28;20200;-32
2022/03/24 08:27:36;;;;;;;21.43;11.97;;;14.00;28.20;;;;;;5051623;28;20232;-32
2022/03/24 08:30:06;;;;;;;18.80;9.70;;;14.20;28.50;;;;;;5051473;28;20165;-33
2022/03/24 08:32:32;;;;;;;25.08;12.48;;;14.40;28.00;;;;;;5051690;28;20173;-32
2022/03/24 08:34:58;;;;;;;19.88;10.35;;;14.60;27.10;;;;;;5052307;28;20177;-33
2022/03/24 08:37:23;;;;;;;20.93;12.83;;;14.60;26.70;;;;;;5051732;28;20265;-32
2022/03/24 08:39:49;;;;;;;15.90;10.83;;;14.70;27.90;;;;;;5051315;28;20560;-32
2022/03/24 08:42:15;;;;;;;18.33;11.23;;;14.90;27.40;;;;;;5051891;28;20170;-33
2022/03/24 08:44:41;;;;;;;23.10;12.07;;;15.10;26.50;;;;;;5051599;28;20571;-32
2022/03/24 08:47:07;;;;;;;21.27;11.80;;;15.30;27.20;;;;;;5051779;28;20408;-32
2022/03/24 08:49:32;;;;;;;18.52;10.88;;;15.50;26.60;;;;;;5051358;28;20185;-33
2022/03/24 08:51:59;;;;;;;24.33;12.40;;;15.70;26.50;;;;;;5051629;28;20176;-33
2022/03/24 08:54:24;;;;;;;20.48;12.30;;;15.90;26.00;;;;;;5055224;28;20169;-33
2022/03/24 08:56:50;;;;;;;24.00;12.97;;;16.10;25.90;;;;;;5055374;28;20518;-33
2022/03/24 08:59:16;;;;;;;19.98;11.30;;;16.30;24.90;;;;;;5055088;28;20498;-32
2022/03/24 09:01:43;;;;;;;24.93;14.60;;;16.40;25.50;;;;;;5055420;28;20248;-33
2022/03/24 09:04:10;;;;;;;23.35;13.48;;;16.50;23.70;;;;;;5055236;28;20495;-33
2022/03/24 09:06:39;;;;;;;21.77;11.90;;;16.60;24.10;;;;;;5054033;28;20583;-33
2022/03/24 09:09:05;;;;;;;18.38;12.98;;;16.70;24.80;;;;;;5055148;28;20217;-33
2022/03/24 09:11:31;;;;;;;20.52;10.65;;;16.90;23.70;;;;;;5055880;28;20174;-33
2022/03/24 09:13:57;;;;;;;20.88;12.95;;;16.90;23.00;;;;;;5060724;28;20177;-33
2022/03/24 09:16:23;;;;;;;29.23;14.55;;;16.90;23.50;;;;;;5061261;28;20184;-33
2022/03/24 09:18:49;;;;;;;22.95;11.55;;;17.00;24.10;;;;;;5057665;28;20232;-33
2022/03/24 09:21:16;;;;;;;20.00;11.87;;;17.20;25.00;;;;;;5055446;28;20584;-33
2022/03/24 09:23:43;;;;;;;19.88;12.48;;;17.50;24.60;;;;;;5055170;28;20205;-33
2022/03/24 09:26:09;;;;;;;18.73;12.47;;;17.70;24.20;;;;;;5055106;28;20261;-33
2022/03/24 09:28:35;;;;;;;21.03;11.90;;;17.90;23.20;;;;;;5054462;28;20656;-33
2022/03/24 09:31:01;;;;;;;27.88;13.95;;;18.00;22.30;;;;;;5053493;28;20503;-33
2022/03/24 09:33:27;;;;;;;23.53;15.63;;;18.10;23.50;;;;;;5054896;28;20253;-33
2022/03/24 09:35:53;;;;;;;20.63;12.37;;;18.40;23.20;;;;;;5055265;28;20560;-33
2022/03/24 09:38:18;;;;;;;15.07;10.60;;;18.60;23.70;;;;;;5055942;28;20205;-33
2022/03/24 09:40:45;;;;;;;20.67;13.37;;;18.70;22.70;;;;;;5054923;28;20460;-33
2022/03/24 09:43:13;;;;;;;23.27;12.57;;;18.80;22.80;;;;;;5054471;28;20449;-33
2022/03/24 09:45:44;;;;;;;21.77;13.25;;;19.00;23.30;;;;;;5054486;28;20184;-34
2022/03/24 09:48:11;;;;;;;20.08;13.25;;;19.10;22.70;;;;;;5054339;28;20688;-33
2022/03/24 09:50:37;;;;;;;21.50;13.40;;;19.20;21.00;;;;;;5054315;28;20208;-33
2022/03/24 09:53:03;;;;;;;19.70;13.60;;;19.20;21.90;;;;;;5054491;28;20174;-33
2022/03/24 09:55:36;;;;;;;29.38;15.00;;;19.20;21.30;;;;;;5054217;28;20443;-33
2022/03/24 09:58:02;;;;;;;17.00;12.55;;;19.20;21.40;;;;;;5054329;28;20193;-33
2022/03/24 10:00:28;;;;;;;21.30;13.65;;;19.30;21.70;;;;;;5054137;28;20243;-33
2022/03/24 10:03:18;;;;;;;20.87;13.13;;;19.40;21.70;;;;;;5054082;28;20267;-34
2022/03/24 10:06:07;;;;;;;18.42;12.38;;;19.60;21.20;;;;;;5054403;28;20705;-33
2022/03/24 10:08:35;;;;;;;21.55;12.98;;;19.90;22.60;;;;;;5053871;28;20236;-33
2022/03/24 10:11:09;;;;;;;21.30;14.50;;;20.10;20.80;;;;;;5053975;28;20173;-33
2022/03/24 10:13:51;;;;;;;22.63;13.75;;;20.30;21.10;;;;;;5054050;28;20184;-33
2022/03/24 10:16:41;;;;;;;20.63;12.40;;;20.50;21.60;;;;;;5053873;28;20676;-33
2022/03/24 10:19:12;;;;;;;23.73;14.68;;;20.80;20.40;;;;;;5054058;28;20212;-34
2022/03/24 10:21:44;;;;;;;24.50;14.13;;;20.70;19.70;;;;;;5054034;28;20263;-33
2022/03/24 10:24:21;;;;;;;20.85;13.43;;;20.80;19.50;;;;;;5053702;28;20634;-34
2022/03/24 10:26:49;;;;;;;20.90;11.95;;;21.00;20.30;;;;;;5053645;28;20173;-33
2022/03/24 10:29:20;;;;;;;20.83;13.30;;;21.10;18.90;;;;;;5053297;28;20288;-33
2022/03/24 10:31:56;;;;;;;23.02;13.77;;;21.10;19.20;;;;;;5053681;28;20204;-33
2022/03/24 10:34:31;;;;;;;21.08;13.48;;;21.30;19.20;;;;;;5054174;28;20162;-33
2022/03/24 10:37:02;;;;;;;21.08;12.43;;;21.60;19.60;;;;;;5053678;28;20196;-33
2022/03/24 10:39:27;;;;;;;15.05;10.75;;;21.80;19.10;;;;;;5053136;28;20204;-33
2022/03/24 10:41:53;;;;;;;17.83;9.80;;;22.00;19.00;;;;;;5053424;28;20253;-33
2022/03/24 10:44:19;;;;;;;18.47;10.30;;;22.30;19.60;;;;;;5053677;28;20579;-33
2022/03/24 10:46:45;;;;;;;16.90;10.47;;;22.60;19.00;;;;;;5053180;28;20439;-33
2022/03/24 10:49:37;;;;;;;19.50;11.60;;;22.80;18.80;;;;;;5053223;28;20297;-33
2022/03/24 10:52:03;;;;;;;17.67;10.10;;;23.10;18.40;;;;;;5047365;28;20820;-34
2022/03/24 10:54:48;;;;;;;24.57;12.50;;;23.30;17.70;;;;;;5053452;28;20439;-33
2022/03/24 10:57:18;;;;;;;14.40;9.20;;;23.50;18.70;;;;;;5052995;28;20180;-33
2022/03/24 10:59:47;;;;;;;13.35;9.85;;;23.50;16.80;;;;;;5052850;28;20969;-34
2022/03/24 11:02:15;;;;;;;20.50;12.37;;;23.70;17.40;;;;;;5053267;28;20185;-33
2022/03/24 11:04:43;;;;;;;18.73;10.33;;;23.80;17.60;;;;;;5052934;28;20465;-33
2022/03/24 11:07:09;;;;;;;14.93;10.00;;;24.00;16.50;;;;;;5052899;28;20413;-34
2022/03/24 11:09:35;;;;;;;19.07;10.47;;;24.10;16.80;;;;;;5052438;28;20479;-34
2022/03/24 11:12:28;;;;;;;15.77;10.83;;;24.30;16.40;;;;;;5052782;28;20431;-34
2022/03/24 11:15:05;;;;;;;12.80;8.17;;;24.40;15.80;;;;;;5052707;28;20385;-34
2022/03/24 11:17:34;;;;;;;13.70;10.03;;;24.50;16.40;;;;;;5052746;28;20450;-34
2022/03/24 11:20:06;;;;;;;15.33;8.33;;;24.60;16.30;;;;;;5052417;28;20469;-34
2022/03/24 11:22:43;;;;;;;14.47;9.27;;;24.80;16.90;;;;;;5052656;28;20408;-34
2022/03/24 11:25:10;;;;;;;17.73;10.20;;;24.90;14.40;;;;;;5052556;28;20420;-34
2022/03/24 11:27:36;;;;;;;14.77;10.10;;;24.90;15.90;;;;;;5052355;28;20455;-34
2022/03/24 11:30:04;;;;;;;24.60;9.97;;;25.10;16.20;;;;;;5052203;28;20449;-34
2022/03/24 11:32:35;;;;;;;13.60;9.50;;;25.20;15.50;;;;;;5052752;28;20216;-34
2022/03/24 11:35:02;;;;;;;12.83;9.57;;;25.40;14.90;;;;;;5052438;28;20494;-34
2022/03/24 11:37:28;;;;;;;15.40;9.40;;;25.40;14.60;;;;;;5052357;28;20412;-34
2022/03/24 11:40:05;;;;;;;15.60;11.20;;;25.40;15.30;;;;;;5052092;28;20428;-34
2022/03/24 11:42:34;;;;;;;16.87;11.67;;;25.40;13.50;;;;;;5052171;28;20794;-34
2022/03/24 11:45:11;;;;;;;18.63;11.20;;;25.40;14.60;;;;;;5052253;28;20423;-34
2022/03/24 11:48:05;;;;;;;15.27;9.77;;;25.50;14.70;;;;;;5052119;28;20454;-34
2022/03/24 11:50:44;;;;;;;15.10;9.23;;;25.70;14.50;;;;;;5050799;28;20411;-34
2022/03/24 11:53:25;;;;;;;12.27;8.23;;;25.80;14.50;;;;;;5052135;28;20383;-34
2022/03/24 11:56:03;;;;;;;18.27;10.43;;;25.90;13.90;;;;;;5052063;28;21105;-34
2022/03/24 11:58:31;;;;;;;16.00;10.43;;;26.00;14.40;;;;;;5050641;28;20436;-35
2022/03/24 12:01:17;;;;;;;13.37;9.87;;;26.10;14.00;;;;;;5051902;28;20810;-34
2022/03/24 12:03:55;;;;;;;15.67;10.70;;;26.10;14.10;;;;;;5051868;28;20455;-35
2022/03/24 12:06:40;;;;;;;16.17;11.00;;;26.20;14.80;;;;;;5052216;28;20459;-34
2022/03/24 12:09:10;;;;;;;17.33;11.07;;;26.20;13.60;;;;;;5051392;28;20548;-34
2022/03/24 12:11:42;;;;;;;20.63;9.70;;;26.20;14.00;;;;;;5052042;28;20410;-34
2022/03/24 12:14:09;;;;;;;16.10;9.47;;;26.20;13.50;;;;;;5051869;28;20895;-34
2022/03/24 12:16:38;;;;;;;13.10;8.63;;;26.30;13.90;;;;;;5052324;28;20461;-34
2022/03/24 12:19:05;;;;;;;14.23;9.80;;;26.30;13.50;;;;;;5050895;28;20435;-34
2022/03/24 12:21:32;;;;;;;16.83;9.60;;;26.40;13.60;;;;;;5043019;28;20428;-34
2022/03/24 12:24:17;;;;;;;14.50;11.03;;;26.50;13.30;;;;;;5043664;28;20415;-34
2022/03/24 12:26:53;;;;;;;15.20;9.60;;;26.60;13.50;;;;;;5052744;28;20757;-34
2022/03/24 12:29:25;;;;;;;17.00;11.30;;;26.60;13.40;;;;;;5055769;28;20462;-35
2022/03/24 12:32:01;;;;;;;17.63;10.03;;;26.70;13.60;;;;;;5055748;28;20404;-34
2022/03/24 12:34:44;;;;;;;13.00;8.77;;;26.80;13.60;;;;;;5055721;28;20482;-35
2022/03/24 12:37:32;;;;;;;15.93;11.57;;;26.80;12.90;;;;;;5055815;28;20408;-35
2022/03/24 12:40:05;;;;;;;15.50;10.17;;;26.70;11.60;;;;;;5055413;28;20946;-34
2022/03/24 12:42:45;;;;;;;17.37;9.90;;;26.70;12.90;;;;;;5055569;28;20907;-35
2022/03/24 12:45:23;;;;;;;16.57;11.93;;;26.80;12.90;;;;;;5055437;28;20903;-34
2022/03/24 12:47:49;;;;;;;16.40;11.40;;;26.60;11.90;;;;;;5055279;28;20462;-34